< < Back
Terminal Aerodrome Forecast


Current Version              Previous Versions:   1  2  3  4  5  6  7  8  9  

Terminal Aerodrome Forecast

448
FTUS42 KTAE 181700
TAFTLH
TAF
KTLH 181720Z 1818/1918 33005KT P6SM BKN250
     FM190900 00000KT P6SM OVC100
     FM191500 08004KT P6SM BKN250=



Latest METAR

862
SAUS80 KWBC 182300
MTRTLH
METAR KTLH 182253Z 02003KT 10SM FEW090 SCT250 31/18 A2989 RMK AO2 SLP121
CB DSNT S T03060183 $


USA.gov is the U.S. government's official web portal to all federal, state and local government web resources and services.